Byron, California
Current Conditions -  °F | °C
As of 5:53 AM on Sunday 23 Nov 2014 (Local Time) from KLVK Reporting Station
Moderate Fog Moderate Fog  
Wind Chill: 47°   Ceiling: 100
Heat Index: 47°   Visibility: 0mi
Dew Point: 45°   Wind: 0mph
Humidity: 93%   Direction: NA
Pressure: 30.29"   Gusts: NA
Location:  37.87°N, 121.64°W
Report Text: KLVK 231353Z AUTO 00000KT M1/4SM FG VV001 08/07 A3029 RMK AO2 SLP256 T00830072 $
Loading
Personal Weather Stations






























Interactive Weather Map New forecast layout! Learn more

10-Day Weather Forecast

Advertisements
Track Severe Weather on mobile